sensor_id;sensor_type;location;lat;lon;timestamp;P1;durP1;ratioP1;P2;durP2;ratioP2
14015;SDS011;7083;48.854;9.158;2022-12-18T00:01:57;1999.90;;;999.90;;
14015;SDS011;7083;48.854;9.158;2022-12-18T00:04:25;1999.90;;;999.90;;
14015;SDS011;7083;48.854;9.158;2022-12-18T00:06:52;1999.90;;;999.90;;
14015;SDS011;7083;48.854;9.158;2022-12-18T00:09:19;1999.90;;;999.90;;
14015;SDS011;7083;48.854;9.158;2022-12-18T00:11:46;1999.90;;;999.90;;
14015;SDS011;7083;48.854;9.158;2022-12-18T00:14:15;1999.90;;;999.90;;
14015;SDS011;7083;48.854;9.158;2022-12-18T00:16:43;1999.90;;;999.90;;
14015;SDS011;7083;48.854;9.158;2022-12-18T00:19:10;1999.90;;;999.90;;
14015;SDS011;7083;48.854;9.158;2022-12-18T00:21:37;1999.90;;;999.90;;
14015;SDS011;7083;48.854;9.158;2022-12-18T00:24:04;1999.90;;;999.90;;
14015;SDS011;7083;48.854;9.158;2022-12-18T00:26:32;1999.90;;;999.90;;
14015;SDS011;7083;48.854;9.158;2022-12-18T00:29:01;1999.90;;;999.90;;
14015;SDS011;7083;48.854;9.158;2022-12-18T00:31:31;1999.90;;;999.90;;
14015;SDS011;7083;48.854;9.158;2022-12-18T00:33:58;1999.90;;;999.90;;
14015;SDS011;7083;48.854;9.158;2022-12-18T00:36:26;1999.90;;;999.90;;
14015;SDS011;7083;48.854;9.158;2022-12-18T00:38:53;1999.90;;;999.90;;
14015;SDS011;7083;48.854;9.158;2022-12-18T00:41:21;1999.90;;;999.90;;
14015;SDS011;7083;48.854;9.158;2022-12-18T00:44:06;1999.90;;;999.90;;
14015;SDS011;7083;48.854;9.158;2022-12-18T00:46:37;1999.90;;;999.90;;
14015;SDS011;7083;48.854;9.158;2022-12-18T00:49:04;1999.90;;;999.90;;
14015;SDS011;7083;48.854;9.158;2022-12-18T00:51:30;1999.90;;;999.90;;
14015;SDS011;7083;48.854;9.158;2022-12-18T00:53:57;1999.90;;;999.90;;
14015;SDS011;7083;48.854;9.158;2022-12-18T00:56:24;1999.90;;;999.90;;
14015;SDS011;7083;48.854;9.158;2022-12-18T00:58:51;1999.90;;;999.90;;
14015;SDS011;7083;48.854;9.158;2022-12-18T01:01:18;1999.90;;;999.90;;
14015;SDS011;7083;48.854;9.158;2022-12-18T01:03:46;1999.90;;;999.90;;
14015;SDS011;7083;48.854;9.158;2022-12-18T01:06:14;1999.90;;;999.90;;
14015;SDS011;7083;48.854;9.158;2022-12-18T01:08:41;1999.90;;;999.90;;
14015;SDS011;7083;48.854;9.158;2022-12-18T01:11:09;1999.90;;;999.90;;
14015;SDS011;7083;48.854;9.158;2022-12-18T01:13:36;1999.90;;;999.90;;
14015;SDS011;7083;48.854;9.158;2022-12-18T01:16:04;1999.90;;;999.90;;
14015;SDS011;7083;48.854;9.158;2022-12-18T01:18:30;1999.90;;;999.90;;
14015;SDS011;7083;48.854;9.158;2022-12-18T01:20:58;1999.90;;;999.90;;
14015;SDS011;7083;48.854;9.158;2022-12-18T01:23:25;1999.90;;;999.90;;
14015;SDS011;7083;48.854;9.158;2022-12-18T01:25:52;1999.90;;;999.90;;
14015;SDS011;7083;48.854;9.158;2022-12-18T01:28:19;1999.90;;;999.90;;
14015;SDS011;7083;48.854;9.158;2022-12-18T01:30:46;1999.90;;;999.90;;
14015;SDS011;7083;48.854;9.158;2022-12-18T01:33:12;1999.90;;;999.90;;
14015;SDS011;7083;48.854;9.158;2022-12-18T01:35:40;1999.90;;;999.90;;
14015;SDS011;7083;48.854;9.158;2022-12-18T01:38:09;1999.90;;;999.90;;
14015;SDS011;7083;48.854;9.158;2022-12-18T01:40:35;1999.90;;;999.90;;
14015;SDS011;7083;48.854;9.158;2022-12-18T01:43:02;1999.90;;;999.90;;
14015;SDS011;7083;48.854;9.158;2022-12-18T01:45:30;1999.90;;;999.90;;
14015;SDS011;7083;48.854;9.158;2022-12-18T01:47:58;1999.90;;;999.90;;
14015;SDS011;7083;48.854;9.158;2022-12-18T01:50:28;1999.90;;;999.90;;
14015;SDS011;7083;48.854;9.158;2022-12-18T01:53:00;1999.90;;;999.90;;
14015;SDS011;7083;48.854;9.158;2022-12-18T01:55:32;1999.90;;;999.90;;
14015;SDS011;7083;48.854;9.158;2022-12-18T01:58:04;1999.90;;;999.90;;
14015;SDS011;7083;48.854;9.158;2022-12-18T02:00:31;1999.90;;;999.90;;
14015;SDS011;7083;48.854;9.158;2022-12-18T02:02:58;1999.90;;;999.90;;
14015;SDS011;7083;48.854;9.158;2022-12-18T02:05:27;1999.90;;;999.90;;
14015;SDS011;7083;48.854;9.158;2022-12-18T02:08:01;1999.90;;;999.90;;
14015;SDS011;7083;48.854;9.158;2022-12-18T02:10:38;1999.90;;;999.90;;
14015;SDS011;7083;48.854;9.158;2022-12-18T02:13:12;1999.90;;;999.90;;
14015;SDS011;7083;48.854;9.158;2022-12-18T02:15:46;1999.90;;;999.90;;
14015;SDS011;7083;48.854;9.158;2022-12-18T02:18:21;1999.90;;;999.90;;
14015;SDS011;7083;48.854;9.158;2022-12-18T02:20:52;1999.90;;;999.90;;
14015;SDS011;7083;48.854;9.158;2022-12-18T02:23:39;1999.90;;;999.90;;
14015;SDS011;7083;48.854;9.158;2022-12-18T02:26:16;1999.90;;;999.90;;
14015;SDS011;7083;48.854;9.158;2022-12-18T02:28:49;1999.90;;;999.90;;
14015;SDS011;7083;48.854;9.158;2022-12-18T02:31:21;1999.90;;;999.90;;
14015;SDS011;7083;48.854;9.158;2022-12-18T02:33:52;1999.90;;;999.90;;
14015;SDS011;7083;48.854;9.158;2022-12-18T02:36:22;1999.90;;;999.90;;
14015;SDS011;7083;48.854;9.158;2022-12-18T02:38:51;1999.90;;;999.90;;
14015;SDS011;7083;48.854;9.158;2022-12-18T02:41:20;1999.90;;;999.90;;
14015;SDS011;7083;48.854;9.158;2022-12-18T02:43:48;1999.90;;;999.90;;
14015;SDS011;7083;48.854;9.158;2022-12-18T02:46:27;1999.90;;;999.90;;
14015;SDS011;7083;48.854;9.158;2022-12-18T02:49:00;1999.90;;;999.90;;
14015;SDS011;7083;48.854;9.158;2022-12-18T02:51:32;1999.90;;;999.90;;
14015;SDS011;7083;48.854;9.158;2022-12-18T02:54:06;1999.90;;;999.90;;
14015;SDS011;7083;48.854;9.158;2022-12-18T02:56:38;1999.90;;;999.90;;
14015;SDS011;7083;48.854;9.158;2022-12-18T02:59:12;1999.90;;;999.90;;
14015;SDS011;7083;48.854;9.158;2022-12-18T03:01:46;1999.90;;;999.90;;
14015;SDS011;7083;48.854;9.158;2022-12-18T03:04:19;1999.90;;;999.90;;
14015;SDS011;7083;48.854;9.158;2022-12-18T03:06:53;1999.90;;;999.90;;
14015;SDS011;7083;48.854;9.158;2022-12-18T03:09:24;1999.90;;;999.90;;
14015;SDS011;7083;48.854;9.158;2022-12-18T03:11:58;1999.90;;;999.90;;
14015;SDS011;7083;48.854;9.158;2022-12-18T03:14:45;1999.90;;;999.90;;
14015;SDS011;7083;48.854;9.158;2022-12-18T03:17:15;1999.90;;;999.90;;
14015;SDS011;7083;48.854;9.158;2022-12-18T03:19:45;1999.90;;;999.90;;
14015;SDS011;7083;48.854;9.158;2022-12-18T03:22:13;1999.90;;;999.90;;
14015;SDS011;7083;48.854;9.158;2022-12-18T03:24:43;1999.90;;;999.90;;
14015;SDS011;7083;48.854;9.158;2022-12-18T03:27:13;1999.90;;;999.90;;
14015;SDS011;7083;48.854;9.158;2022-12-18T03:29:43;1999.90;;;999.90;;
14015;SDS011;7083;48.854;9.158;2022-12-18T03:32:15;1999.90;;;999.90;;
14015;SDS011;7083;48.854;9.158;2022-12-18T03:34:47;1999.90;;;999.90;;
14015;SDS011;7083;48.854;9.158;2022-12-18T03:37:16;1999.90;;;999.90;;
14015;SDS011;7083;48.854;9.158;2022-12-18T03:39:43;1999.90;;;999.90;;
14015;SDS011;7083;48.854;9.158;2022-12-18T03:42:11;1999.90;;;999.90;;
14015;SDS011;7083;48.854;9.158;2022-12-18T03:44:49;1999.90;;;999.90;;
14015;SDS011;7083;48.854;9.158;2022-12-18T03:47:24;1999.90;;;999.90;;
14015;SDS011;7083;48.854;9.158;2022-12-18T03:49:55;1999.90;;;999.90;;
14015;SDS011;7083;48.854;9.158;2022-12-18T03:52:26;1999.90;;;999.90;;
14015;SDS011;7083;48.854;9.158;2022-12-18T03:54:56;1999.90;;;999.90;;
14015;SDS011;7083;48.854;9.158;2022-12-18T03:57:26;1999.90;;;999.90;;
14015;SDS011;7083;48.854;9.158;2022-12-18T03:59:56;1999.90;;;999.90;;
14015;SDS011;7083;48.854;9.158;2022-12-18T04:02:26;1999.90;;;999.90;;
14015;SDS011;7083;48.854;9.158;2022-12-18T04:04:54;1999.90;;;999.90;;
14015;SDS011;7083;48.854;9.158;2022-12-18T04:07:24;1999.90;;;999.90;;
14015;SDS011;7083;48.854;9.158;2022-12-18T04:09:51;1999.90;;;999.90;;
14015;SDS011;7083;48.854;9.158;2022-12-18T04:12:23;1999.90;;;999.90;;
14015;SDS011;7083;48.854;9.158;2022-12-18T04:14:52;1999.90;;;999.90;;
14015;SDS011;7083;48.854;9.158;2022-12-18T04:17:18;1999.90;;;999.90;;
14015;SDS011;7083;48.854;9.158;2022-12-18T04:19:45;1999.90;;;999.90;;
14015;SDS011;7083;48.854;9.158;2022-12-18T04:22:12;1999.90;;;999.90;;
14015;SDS011;7083;48.854;9.158;2022-12-18T04:24:39;1999.90;;;999.90;;
14015;SDS011;7083;48.854;9.158;2022-12-18T04:27:06;1999.90;;;999.90;;
14015;SDS011;7083;48.854;9.158;2022-12-18T04:29:34;1999.90;;;999.90;;
14015;SDS011;7083;48.854;9.158;2022-12-18T04:32:01;1999.90;;;999.90;;
14015;SDS011;7083;48.854;9.158;2022-12-18T04:34:28;1999.90;;;999.90;;
14015;SDS011;7083;48.854;9.158;2022-12-18T04:36:55;1999.90;;;999.90;;
14015;SDS011;7083;48.854;9.158;2022-12-18T04:39:22;1999.90;;;999.90;;
14015;SDS011;7083;48.854;9.158;2022-12-18T04:41:49;1999.90;;;999.90;;
14015;SDS011;7083;48.854;9.158;2022-12-18T04:44:15;1999.90;;;999.90;;
14015;SDS011;7083;48.854;9.158;2022-12-18T04:46:43;1999.90;;;999.90;;
14015;SDS011;7083;48.854;9.158;2022-12-18T04:49:10;1999.90;;;999.90;;
14015;SDS011;7083;48.854;9.158;2022-12-18T04:51:37;1999.90;;;999.90;;
14015;SDS011;7083;48.854;9.158;2022-12-18T04:54:04;1999.90;;;999.90;;
14015;SDS011;7083;48.854;9.158;2022-12-18T04:56:31;1999.90;;;999.90;;
14015;SDS011;7083;48.854;9.158;2022-12-18T04:58:58;1999.90;;;999.90;;
14015;SDS011;7083;48.854;9.158;2022-12-18T05:01:25;1999.90;;;999.90;;
14015;SDS011;7083;48.854;9.158;2022-12-18T05:03:53;1999.90;;;999.90;;
14015;SDS011;7083;48.854;9.158;2022-12-18T05:06:19;1999.90;;;999.90;;
14015;SDS011;7083;48.854;9.158;2022-12-18T05:08:46;1999.90;;;999.90;;
14015;SDS011;7083;48.854;9.158;2022-12-18T05:11:13;1999.90;;;999.90;;
14015;SDS011;7083;48.854;9.158;2022-12-18T05:13:41;1999.90;;;999.90;;
14015;SDS011;7083;48.854;9.158;2022-12-18T05:16:09;1999.90;;;999.90;;
14015;SDS011;7083;48.854;9.158;2022-12-18T05:18:37;1999.90;;;999.90;;
14015;SDS011;7083;48.854;9.158;2022-12-18T05:21:05;1999.90;;;999.90;;
14015;SDS011;7083;48.854;9.158;2022-12-18T05:23:32;1999.90;;;999.90;;
14015;SDS011;7083;48.854;9.158;2022-12-18T05:26:00;1999.90;;;999.90;;
14015;SDS011;7083;48.854;9.158;2022-12-18T05:28:29;1999.90;;;999.90;;
14015;SDS011;7083;48.854;9.158;2022-12-18T05:30:58;1999.90;;;999.90;;
14015;SDS011;7083;48.854;9.158;2022-12-18T05:33:28;1999.90;;;999.90;;
14015;SDS011;7083;48.854;9.158;2022-12-18T05:35:57;1999.90;;;999.90;;
14015;SDS011;7083;48.854;9.158;2022-12-18T05:38:26;1999.90;;;999.90;;
14015;SDS011;7083;48.854;9.158;2022-12-18T05:40:55;1999.90;;;999.90;;
14015;SDS011;7083;48.854;9.158;2022-12-18T05:43:22;1999.90;;;999.90;;
14015;SDS011;7083;48.854;9.158;2022-12-18T05:45:50;1999.90;;;999.90;;
14015;SDS011;7083;48.854;9.158;2022-12-18T05:48:17;1999.90;;;999.90;;
14015;SDS011;7083;48.854;9.158;2022-12-18T05:50:45;1999.90;;;999.90;;
14015;SDS011;7083;48.854;9.158;2022-12-18T05:53:13;1999.90;;;999.90;;
14015;SDS011;7083;48.854;9.158;2022-12-18T05:55:42;1999.90;;;999.90;;
14015;SDS011;7083;48.854;9.158;2022-12-18T05:58:10;1999.90;;;999.90;;
14015;SDS011;7083;48.854;9.158;2022-12-18T06:00:39;1999.90;;;999.90;;
14015;SDS011;7083;48.854;9.158;2022-12-18T06:03:11;1999.90;;;999.90;;
14015;SDS011;7083;48.854;9.158;2022-12-18T06:05:39;1999.90;;;999.90;;
14015;SDS011;7083;48.854;9.158;2022-12-18T06:08:08;1999.90;;;999.90;;
14015;SDS011;7083;48.854;9.158;2022-12-18T06:10:35;1999.90;;;999.90;;
14015;SDS011;7083;48.854;9.158;2022-12-18T06:13:04;1999.90;;;999.90;;
14015;SDS011;7083;48.854;9.158;2022-12-18T06:15:32;1999.90;;;999.90;;
14015;SDS011;7083;48.854;9.158;2022-12-18T06:18:01;1999.90;;;999.90;;
14015;SDS011;7083;48.854;9.158;2022-12-18T06:20:28;1999.90;;;999.90;;
14015;SDS011;7083;48.854;9.158;2022-12-18T06:22:55;1999.90;;;999.90;;
14015;SDS011;7083;48.854;9.158;2022-12-18T06:25:22;1999.90;;;999.90;;
14015;SDS011;7083;48.854;9.158;2022-12-18T06:27:49;1999.90;;;999.90;;
14015;SDS011;7083;48.854;9.158;2022-12-18T06:30:17;1999.90;;;999.90;;
14015;SDS011;7083;48.854;9.158;2022-12-18T06:32:44;1999.90;;;999.90;;
14015;SDS011;7083;48.854;9.158;2022-12-18T06:35:10;1999.90;;;999.90;;
14015;SDS011;7083;48.854;9.158;2022-12-18T06:37:37;1999.90;;;999.90;;
14015;SDS011;7083;48.854;9.158;2022-12-18T06:40:04;1999.90;;;999.90;;
14015;SDS011;7083;48.854;9.158;2022-12-18T06:42:32;1999.90;;;999.90;;
14015;SDS011;7083;48.854;9.158;2022-12-18T06:45:01;1999.90;;;999.90;;
14015;SDS011;7083;48.854;9.158;2022-12-18T06:47:29;1999.90;;;999.90;;
14015;SDS011;7083;48.854;9.158;2022-12-18T06:49:55;1999.90;;;999.90;;
14015;SDS011;7083;48.854;9.158;2022-12-18T06:52:22;1999.90;;;999.90;;
14015;SDS011;7083;48.854;9.158;2022-12-18T06:54:49;1999.90;;;999.90;;
14015;SDS011;7083;48.854;9.158;2022-12-18T06:57:16;1999.90;;;999.90;;
14015;SDS011;7083;48.854;9.158;2022-12-18T06:59:42;1999.90;;;999.90;;
14015;SDS011;7083;48.854;9.158;2022-12-18T07:02:10;1999.90;;;999.90;;
14015;SDS011;7083;48.854;9.158;2022-12-18T07:04:39;1999.90;;;999.90;;
14015;SDS011;7083;48.854;9.158;2022-12-18T07:07:06;1999.90;;;999.90;;
14015;SDS011;7083;48.854;9.158;2022-12-18T07:09:33;1999.90;;;999.90;;
14015;SDS011;7083;48.854;9.158;2022-12-18T07:11:59;1999.90;;;999.90;;
14015;SDS011;7083;48.854;9.158;2022-12-18T07:14:26;1999.90;;;999.90;;
14015;SDS011;7083;48.854;9.158;2022-12-18T07:16:53;1999.90;;;999.90;;
14015;SDS011;7083;48.854;9.158;2022-12-18T07:19:20;1999.90;;;999.90;;
14015;SDS011;7083;48.854;9.158;2022-12-18T07:21:49;1999.90;;;999.90;;
14015;SDS011;7083;48.854;9.158;2022-12-18T07:24:16;1999.90;;;999.90;;
14015;SDS011;7083;48.854;9.158;2022-12-18T07:26:45;1999.90;;;999.90;;
14015;SDS011;7083;48.854;9.158;2022-12-18T07:29:12;1999.90;;;999.90;;
14015;SDS011;7083;48.854;9.158;2022-12-18T07:31:39;1999.90;;;999.90;;
14015;SDS011;7083;48.854;9.158;2022-12-18T07:34:09;1999.90;;;999.90;;
14015;SDS011;7083;48.854;9.158;2022-12-18T07:36:36;1999.90;;;999.90;;
14015;SDS011;7083;48.854;9.158;2022-12-18T07:39:04;1999.90;;;999.90;;
14015;SDS011;7083;48.854;9.158;2022-12-18T07:41:31;1999.90;;;999.90;;
14015;SDS011;7083;48.854;9.158;2022-12-18T07:43:58;1999.90;;;999.90;;
14015;SDS011;7083;48.854;9.158;2022-12-18T07:46:25;1999.90;;;999.90;;
14015;SDS011;7083;48.854;9.158;2022-12-18T07:48:51;1999.90;;;999.90;;
14015;SDS011;7083;48.854;9.158;2022-12-18T07:51:18;1999.90;;;999.90;;
14015;SDS011;7083;48.854;9.158;2022-12-18T07:53:45;1999.90;;;999.90;;
14015;SDS011;7083;48.854;9.158;2022-12-18T07:56:14;1999.90;;;999.90;;
14015;SDS011;7083;48.854;9.158;2022-12-18T07:58:40;1999.90;;;999.90;;
14015;SDS011;7083;48.854;9.158;2022-12-18T08:01:10;1999.90;;;999.90;;
14015;SDS011;7083;48.854;9.158;2022-12-18T08:03:37;1999.90;;;999.90;;
14015;SDS011;7083;48.854;9.158;2022-12-18T08:06:06;1999.90;;;999.90;;
14015;SDS011;7083;48.854;9.158;2022-12-18T08:08:34;1999.90;;;999.90;;
14015;SDS011;7083;48.854;9.158;2022-12-18T08:11:02;1999.90;;;999.90;;
14015;SDS011;7083;48.854;9.158;2022-12-18T08:13:30;1999.90;;;999.90;;
14015;SDS011;7083;48.854;9.158;2022-12-18T08:16:00;1999.90;;;999.90;;
14015;SDS011;7083;48.854;9.158;2022-12-18T08:18:28;1999.90;;;999.90;;
14015;SDS011;7083;48.854;9.158;2022-12-18T08:20:55;1999.90;;;999.90;;
14015;SDS011;7083;48.854;9.158;2022-12-18T08:23:22;1999.90;;;999.90;;
14015;SDS011;7083;48.854;9.158;2022-12-18T08:25:49;1999.90;;;999.90;;
14015;SDS011;7083;48.854;9.158;2022-12-18T08:28:16;1999.90;;;999.90;;
14015;SDS011;7083;48.854;9.158;2022-12-18T08:30:44;1999.90;;;999.90;;
14015;SDS011;7083;48.854;9.158;2022-12-18T08:33:11;1999.90;;;999.90;;
14015;SDS011;7083;48.854;9.158;2022-12-18T08:35:37;1999.90;;;999.90;;
14015;SDS011;7083;48.854;9.158;2022-12-18T08:38:04;1999.90;;;999.90;;
14015;SDS011;7083;48.854;9.158;2022-12-18T08:40:31;1999.90;;;999.90;;
14015;SDS011;7083;48.854;9.158;2022-12-18T08:42:58;1999.90;;;999.90;;
14015;SDS011;7083;48.854;9.158;2022-12-18T08:45:43;1999.90;;;999.90;;
14015;SDS011;7083;48.854;9.158;2022-12-18T08:48:10;1999.90;;;999.90;;
14015;SDS011;7083;48.854;9.158;2022-12-18T08:50:37;1999.90;;;999.90;;
14015;SDS011;7083;48.854;9.158;2022-12-18T08:53:04;1999.90;;;999.90;;
14015;SDS011;7083;48.854;9.158;2022-12-18T08:55:30;1999.90;;;999.90;;
14015;SDS011;7083;48.854;9.158;2022-12-18T08:57:57;1999.90;;;999.90;;
14015;SDS011;7083;48.854;9.158;2022-12-18T09:00:24;1999.90;;;999.90;;
14015;SDS011;7083;48.854;9.158;2022-12-18T09:02:52;1999.90;;;999.90;;
14015;SDS011;7083;48.854;9.158;2022-12-18T09:05:19;1999.90;;;999.90;;
14015;SDS011;7083;48.854;9.158;2022-12-18T09:07:45;1999.90;;;999.90;;
14015;SDS011;7083;48.854;9.158;2022-12-18T09:10:12;1999.90;;;999.90;;
14015;SDS011;7083;48.854;9.158;2022-12-18T09:12:39;1999.90;;;999.90;;
14015;SDS011;7083;48.854;9.158;2022-12-18T09:15:06;1999.90;;;999.90;;
14015;SDS011;7083;48.854;9.158;2022-12-18T09:17:33;1999.90;;;999.90;;
14015;SDS011;7083;48.854;9.158;2022-12-18T09:20:01;1999.90;;;999.90;;
14015;SDS011;7083;48.854;9.158;2022-12-18T09:22:27;1999.90;;;999.90;;
14015;SDS011;7083;48.854;9.158;2022-12-18T09:24:54;1999.90;;;999.90;;
14015;SDS011;7083;48.854;9.158;2022-12-18T09:27:21;1999.90;;;999.90;;
14015;SDS011;7083;48.854;9.158;2022-12-18T09:29:51;1999.90;;;999.90;;
14015;SDS011;7083;48.854;9.158;2022-12-18T09:32:18;1999.90;;;999.90;;
14015;SDS011;7083;48.854;9.158;2022-12-18T09:34:45;1999.90;;;999.90;;
14015;SDS011;7083;48.854;9.158;2022-12-18T09:37:13;1999.90;;;999.90;;
14015;SDS011;7083;48.854;9.158;2022-12-18T09:39:39;1999.90;;;999.90;;
14015;SDS011;7083;48.854;9.158;2022-12-18T09:42:08;1999.90;;;999.90;;
14015;SDS011;7083;48.854;9.158;2022-12-18T09:44:46;1999.90;;;999.90;;
14015;SDS011;7083;48.854;9.158;2022-12-18T09:47:16;1999.90;;;999.90;;
14015;SDS011;7083;48.854;9.158;2022-12-18T09:49:46;1999.90;;;999.90;;
14015;SDS011;7083;48.854;9.158;2022-12-18T09:52:17;1999.90;;;999.90;;
14015;SDS011;7083;48.854;9.158;2022-12-18T09:54:50;1999.90;;;999.90;;
14015;SDS011;7083;48.854;9.158;2022-12-18T09:57:21;1999.90;;;999.90;;
14015;SDS011;7083;48.854;9.158;2022-12-18T09:59:50;1210.57;;;999.90;;
14015;SDS011;7083;48.854;9.158;2022-12-18T10:02:20;1224.27;;;999.90;;
14015;SDS011;7083;48.854;9.158;2022-12-18T10:04:52;1746.93;;;999.90;;
14015;SDS011;7083;48.854;9.158;2022-12-18T10:07:38;1236.37;;;999.90;;
14015;SDS011;7083;48.854;9.158;2022-12-18T10:10:19;1213.47;;;999.90;;
14015;SDS011;7083;48.854;9.158;2022-12-18T10:12:54;1236.57;;;999.90;;
14015;SDS011;7083;48.854;9.158;2022-12-18T10:15:29;1233.37;;;999.90;;
14015;SDS011;7083;48.854;9.158;2022-12-18T10:18:04;1223.93;;;999.90;;
14015;SDS011;7083;48.854;9.158;2022-12-18T10:20:42;1220.73;;;999.90;;
14015;SDS011;7083;48.854;9.158;2022-12-18T10:23:13;1232.00;;;999.90;;
14015;SDS011;7083;48.854;9.158;2022-12-18T10:25:49;1223.80;;;999.90;;
14015;SDS011;7083;48.854;9.158;2022-12-18T10:28:19;1233.83;;;999.90;;
14015;SDS011;7083;48.854;9.158;2022-12-18T10:30:47;1215.00;;;999.90;;
14015;SDS011;7083;48.854;9.158;2022-12-18T10:33:14;1215.00;;;999.90;;
14015;SDS011;7083;48.854;9.158;2022-12-18T10:35:44;1233.30;;;999.90;;
14015;SDS011;7083;48.854;9.158;2022-12-18T10:38:24;1232.17;;;999.90;;
14015;SDS011;7083;48.854;9.158;2022-12-18T10:40:54;1226.27;;;999.90;;
14015;SDS011;7083;48.854;9.158;2022-12-18T10:43:23;1249.13;;;999.90;;
14015;SDS011;7083;48.854;9.158;2022-12-18T10:46:02;1265.30;;;999.90;;
14015;SDS011;7083;48.854;9.158;2022-12-18T10:48:39;1218.20;;;999.90;;
14015;SDS011;7083;48.854;9.158;2022-12-18T10:51:19;1238.00;;;999.90;;
14015;SDS011;7083;48.854;9.158;2022-12-18T10:53:50;1254.53;;;999.90;;
14015;SDS011;7083;48.854;9.158;2022-12-18T10:56:20;1256.57;;;999.90;;
14015;SDS011;7083;48.854;9.158;2022-12-18T10:58:54;1299.73;;;999.90;;
14015;SDS011;7083;48.854;9.158;2022-12-18T11:01:22;1294.60;;;999.90;;
14015;SDS011;7083;48.854;9.158;2022-12-18T11:03:58;1272.13;;;999.90;;
14015;SDS011;7083;48.854;9.158;2022-12-18T11:06:26;1297.00;;;999.90;;
14015;SDS011;7083;48.854;9.158;2022-12-18T11:08:58;1260.27;;;999.90;;
14015;SDS011;7083;48.854;9.158;2022-12-18T11:17:16;1253.70;;;999.90;;
14015;SDS011;7083;48.854;9.158;2022-12-18T11:24:04;1206.10;;;999.90;;
14015;SDS011;7083;48.854;9.158;2022-12-18T11:30:26;1226.03;;;999.90;;
14015;SDS011;7083;48.854;9.158;2022-12-18T11:46:43;1999.90;;;999.90;;
14015;SDS011;7083;48.854;9.158;2022-12-18T12:37:43;1999.90;;;999.90;;
14015;SDS011;7083;48.854;9.158;2022-12-18T12:40:17;1999.90;;;999.90;;
14015;SDS011;7083;48.854;9.158;2022-12-18T12:42:46;1999.90;;;999.90;;
14015;SDS011;7083;48.854;9.158;2022-12-18T12:45:44;1999.90;;;999.90;;
14015;SDS011;7083;48.854;9.158;2022-12-18T12:48:20;1999.90;;;999.90;;
14015;SDS011;7083;48.854;9.158;2022-12-18T12:51:01;1999.90;;;999.90;;
14015;SDS011;7083;48.854;9.158;2022-12-18T12:53:37;1999.90;;;999.90;;
14015;SDS011;7083;48.854;9.158;2022-12-18T12:56:32;1999.90;;;999.90;;
14015;SDS011;7083;48.854;9.158;2022-12-18T12:59:40;1999.90;;;999.90;;
14015;SDS011;7083;48.854;9.158;2022-12-18T13:02:18;1999.90;;;999.90;;
14015;SDS011;7083;48.854;9.158;2022-12-18T13:04:56;1999.90;;;999.90;;
14015;SDS011;7083;48.854;9.158;2022-12-18T13:07:29;1999.90;;;999.90;;
14015;SDS011;7083;48.854;9.158;2022-12-18T13:10:19;1999.90;;;999.90;;
14015;SDS011;7083;48.854;9.158;2022-12-18T13:12:56;871.35;;;818.55;;
14015;SDS011;7083;48.854;9.158;2022-12-18T13:15:26;1019.90;;;952.50;;
14015;SDS011;7083;48.854;9.158;2022-12-18T13:18:04;1041.13;;;969.83;;
14015;SDS011;7083;48.854;9.158;2022-12-18T13:20:37;724.13;;;684.72;;
14015;SDS011;7083;48.854;9.158;2022-12-18T13:23:19;947.63;;;887.57;;
14015;SDS011;7083;48.854;9.158;2022-12-18T13:25:52;1999.90;;;999.90;;
14015;SDS011;7083;48.854;9.158;2022-12-18T13:28:21;1999.90;;;999.90;;
14015;SDS011;7083;48.854;9.158;2022-12-18T13:30:50;1999.90;;;999.90;;
14015;SDS011;7083;48.854;9.158;2022-12-18T13:36:25;1999.90;;;999.90;;
14015;SDS011;7083;48.854;9.158;2022-12-18T13:41:51;1999.90;;;999.90;;
14015;SDS011;7083;48.854;9.158;2022-12-18T13:44:24;1999.90;;;999.90;;
14015;SDS011;7083;48.854;9.158;2022-12-18T13:46:56;1999.90;;;999.90;;
14015;SDS011;7083;48.854;9.158;2022-12-18T13:49:24;1999.90;;;999.90;;
14015;SDS011;7083;48.854;9.158;2022-12-18T13:51:55;1999.90;;;999.90;;
14015;SDS011;7083;48.854;9.158;2022-12-18T13:54:24;1999.90;;;999.90;;
14015;SDS011;7083;48.854;9.158;2022-12-18T13:57:00;1999.90;;;999.90;;
14015;SDS011;7083;48.854;9.158;2022-12-18T13:59:33;1999.90;;;999.90;;
14015;SDS011;7083;48.854;9.158;2022-12-18T14:02:05;1999.90;;;999.90;;
14015;SDS011;7083;48.854;9.158;2022-12-18T14:04:38;1999.90;;;999.90;;
14015;SDS011;7083;48.854;9.158;2022-12-18T14:07:07;1999.90;;;999.90;;
14015;SDS011;7083;48.854;9.158;2022-12-18T14:09:39;1999.90;;;999.90;;
14015;SDS011;7083;48.854;9.158;2022-12-18T14:12:12;1999.90;;;999.90;;
14015;SDS011;7083;48.854;9.158;2022-12-18T14:14:56;1999.90;;;999.90;;
14015;SDS011;7083;48.854;9.158;2022-12-18T14:17:22;1999.90;;;999.90;;
14015;SDS011;7083;48.854;9.158;2022-12-18T14:19:50;1999.90;;;999.90;;
14015;SDS011;7083;48.854;9.158;2022-12-18T14:22:19;1999.90;;;999.90;;
14015;SDS011;7083;48.854;9.158;2022-12-18T14:24:47;1999.90;;;999.90;;
14015;SDS011;7083;48.854;9.158;2022-12-18T14:27:30;1999.90;;;999.90;;
14015;SDS011;7083;48.854;9.158;2022-12-18T14:29:57;1999.90;;;999.90;;
14015;SDS011;7083;48.854;9.158;2022-12-18T14:32:23;1999.90;;;999.90;;
14015;SDS011;7083;48.854;9.158;2022-12-18T14:34:50;1999.90;;;999.90;;
14015;SDS011;7083;48.854;9.158;2022-12-18T14:37:22;1999.90;;;999.90;;
14015;SDS011;7083;48.854;9.158;2022-12-18T14:39:55;1999.90;;;999.90;;
14015;SDS011;7083;48.854;9.158;2022-12-18T14:42:23;1999.90;;;999.90;;
14015;SDS011;7083;48.854;9.158;2022-12-18T14:47:53;1999.90;;;999.90;;
14015;SDS011;7083;48.854;9.158;2022-12-18T14:50:20;1999.90;;;999.90;;
14015;SDS011;7083;48.854;9.158;2022-12-18T14:52:48;1999.90;;;999.90;;
14015;SDS011;7083;48.854;9.158;2022-12-18T14:55:15;1999.90;;;999.90;;
14015;SDS011;7083;48.854;9.158;2022-12-18T14:57:43;1999.90;;;999.90;;
14015;SDS011;7083;48.854;9.158;2022-12-18T15:00:14;1999.90;;;999.90;;
14015;SDS011;7083;48.854;9.158;2022-12-18T15:02:43;1999.90;;;999.90;;
14015;SDS011;7083;48.854;9.158;2022-12-18T15:05:16;1999.90;;;999.90;;
14015;SDS011;7083;48.854;9.158;2022-12-18T15:16:56;1999.90;;;999.90;;
14015;SDS011;7083;48.854;9.158;2022-12-18T15:19:25;1999.90;;;999.90;;
14015;SDS011;7083;48.854;9.158;2022-12-18T15:21:58;1999.90;;;999.90;;
14015;SDS011;7083;48.854;9.158;2022-12-18T15:24:26;1999.90;;;999.90;;
14015;SDS011;7083;48.854;9.158;2022-12-18T15:26:56;1999.90;;;999.90;;
14015;SDS011;7083;48.854;9.158;2022-12-18T15:29:24;1999.90;;;999.90;;
14015;SDS011;7083;48.854;9.158;2022-12-18T15:31:58;1999.90;;;999.90;;
14015;SDS011;7083;48.854;9.158;2022-12-18T15:34:26;1999.90;;;999.90;;
14015;SDS011;7083;48.854;9.158;2022-12-18T15:36:53;1999.90;;;999.90;;
14015;SDS011;7083;48.854;9.158;2022-12-18T15:39:20;1999.90;;;999.90;;
14015;SDS011;7083;48.854;9.158;2022-12-18T15:41:47;1999.90;;;999.90;;
14015;SDS011;7083;48.854;9.158;2022-12-18T15:44:33;1999.90;;;999.90;;
14015;SDS011;7083;48.854;9.158;2022-12-18T15:46:59;1999.90;;;999.90;;